Sand Point Airport
PASD : rendu visible

Aérodrome :











RETROUVEZ-NOUS SUR...

 
LOGIN :

S'inscrire | Disclaimer

   EN    FR    IT 

 









Légende :    VFR   VFR Marginal   IFR   IFR Intensif   IFR Très Intensif
Visi : 
Plafond : 
>= 8 km
>= 3000ft
5 à 8 km
1000 à 3000 ft
1500m à 5 km
500 à 1000 ft
800 à 1500m
200 à 500 ft
< 800m
< 200 ft
Symboles :   Orages  Brouillard  Fortes neiges  Fortes précipitations  Vent > 20 kt






- Altitude de l'aérodrome : 21 ft
- Code IATA : SDP


PASD - Sand Point

DERNIER METAR :
  • 271029Z AUTO 00000KT 10SM BKN018 M03/M04 A2968 RMK AO2 FZRANO

METARs EXPIRÉS :
  • 270956Z AUTO 00000KT 10SM SCT023 M04/M05 A2968 RMK AO2 SLP052 T10391050 FZRANO
  • 270856Z AUTO 00000KT 10SM CLR M03/M04 A2967 RMK AO2 SLP050 T10281039 400171028 52013 FZRANO

TAF PASD
Valide du 27 à 06h jusqu'au 28 à 06h UTC


270531Z 2706/2806 VRB06KT P6SM SCT020 BKN080 AMD LTD TO CLD VIS AND WIND



MET'MAP, la Météo Aéronautique d'un coup d'oeil ! - Copyright ORBIFLY Décembre 2007 - Disclaimer

ORBIFLY MET'MAP TEAM :

Programmation & Développement : Alexandra Zaïnal
Sur une idée originale de : Baudouin d'Aumeries
Assistance à la programmation : Marc-Olivier Méhu
Soutien technique & logistique : Manuel Goepfert

Contact : metmap@orbifly.com




SOURCES & CREDITS :

   NOAA       Earth
Advisory